Аэропорт: Актау. Актау

ICAO: UATE

METAR:
2018/05/20 23:00
UATE 202300Z 08006MPS CAVOK 17/M00 Q1015 R12/0///70 NOSIG RMK QFE759/1013
METAR:
2018/05/20 18:18
TAF UATE 201706Z 2018/2118 08006MPS CAVOK TX32/2109Z TN13/2101Z